Time;durP1;ratioP1;P1;durP2;ratioP2;P2;SDS_P1;SDS_P2;PMS_P1;PMS_P2;Temp;Humidity;BMP_temperature;BMP_pressure;BME280_temperature;BME280_humidity;BME280_pressure;Samples;Min_cycle;Max_cycle;Signal;HPM_P1;HPM_P2
2021/07/08 00:00:54;;;;;;;0.80;0.70;;;18.00;99.90;;;;;;4953687;28;20277;-77
2021/07/08 00:03:20;;;;;;;0.70;0.50;;;17.90;99.90;;;;;;4943939;29;20322;-78
2021/07/08 00:05:46;;;;;;;0.80;0.80;;;17.90;99.90;;;;;;4931798;29;20511;-79
2021/07/08 00:08:12;;;;;;;1.07;0.93;;;17.90;99.90;;;;;;4937919;29;20547;-80
2021/07/08 00:10:41;;;;;;;0.77;0.57;;;17.80;99.90;;;;;;4939424;29;20454;-79
2021/07/08 00:13:07;;;;;;;0.90;0.70;;;17.80;99.90;;;;;;4936896;29;20387;-79
2021/07/08 00:15:34;;;;;;;0.70;0.50;;;17.80;99.90;;;;;;4936040;29;20419;-78
2021/07/08 00:18:00;;;;;;;1.00;0.63;;;17.80;99.90;;;;;;4935425;29;20411;-79
2021/07/08 00:20:28;;;;;;;0.80;0.63;;;17.80;99.90;;;;;;4923715;29;20450;-78
2021/07/08 00:22:53;;;;;;;2.20;1.90;;;17.80;99.90;;;;;;4928733;29;20427;-79
2021/07/08 00:25:25;;;;;;;0.90;0.70;;;17.70;99.90;;;;;;4937870;29;20975;-79
2021/07/08 00:27:51;;;;;;;0.70;0.60;;;17.70;99.90;;;;;;4939731;29;20197;-78
2021/07/08 00:30:18;;;;;;;0.80;0.70;;;17.60;99.90;;;;;;4940463;29;20839;-79
2021/07/08 00:32:44;;;;;;;0.77;0.63;;;17.60;99.90;;;;;;4937438;29;20775;-78
2021/07/08 00:35:10;;;;;;;0.90;0.60;;;17.60;99.90;;;;;;4937056;29;20414;-78
2021/07/08 00:37:36;;;;;;;1.00;0.70;;;17.60;99.90;;;;;;4935932;29;20696;-78
2021/07/08 00:40:04;;;;;;;0.80;0.70;;;17.60;99.90;;;;;;4937904;29;20592;-78
2021/07/08 00:42:29;;;;;;;1.07;0.97;;;17.50;99.90;;;;;;4937883;29;20218;-77
2021/07/08 00:44:55;;;;;;;0.80;0.60;;;17.50;99.90;;;;;;4937703;29;20996;-79
2021/07/08 00:47:20;;;;;;;0.83;0.70;;;17.60;99.90;;;;;;4938412;29;20182;-78
2021/07/08 00:49:46;;;;;;;0.77;0.60;;;17.60;99.90;;;;;;4937788;29;20195;-78
2021/07/08 00:52:11;;;;;;;0.80;0.60;;;17.60;99.90;;;;;;4936112;29;20230;-78
2021/07/08 00:54:37;;;;;;;1.07;0.60;;;17.60;99.90;;;;;;4938751;29;20189;-79
2021/07/08 00:57:04;;;;;;;0.70;0.60;;;17.60;99.90;;;;;;4938504;29;20305;-79
2021/07/08 00:59:29;;;;;;;0.80;0.70;;;17.60;99.90;;;;;;4938989;29;20179;-78
2021/07/08 01:01:57;;;;;;;1.43;1.33;;;17.60;99.90;;;;;;4940567;29;20433;-79
2021/07/08 01:04:23;;;;;;;0.80;0.77;;;17.60;99.90;;;;;;4941802;29;20199;-79
2021/07/08 01:06:49;;;;;;;0.70;0.50;;;17.50;99.90;;;;;;4943734;28;20515;-79
2021/07/08 01:09:15;;;;;;;0.90;0.70;;;17.40;99.90;;;;;;4937802;29;20915;-78
2021/07/08 01:11:42;;;;;;;1.70;1.60;;;17.30;99.90;;;;;;4932234;29;20989;-78
2021/07/08 01:14:08;;;;;;;0.70;0.60;;;17.30;99.90;;;;;;4933661;29;20515;-78
2021/07/08 01:16:34;;;;;;;0.70;0.50;;;17.30;99.90;;;;;;4931665;29;20430;-79
2021/07/08 01:19:01;;;;;;;0.70;0.50;;;17.30;99.90;;;;;;4938683;29;20796;-79
2021/07/08 01:21:31;;;;;;;0.70;0.50;;;17.30;99.90;;;;;;4940084;29;20438;-78
2021/07/08 01:23:59;;;;;;;1.33;0.80;;;17.20;99.90;;;;;;4938993;29;20490;-79
2021/07/08 01:26:25;;;;;;;0.97;0.97;;;17.20;99.90;;;;;;4938690;29;20418;-78
2021/07/08 01:28:51;;;;;;;0.70;0.60;;;17.20;99.90;;;;;;4927408;29;20437;-79
2021/07/08 01:31:18;;;;;;;6.93;1.17;;;17.20;99.90;;;;;;4937916;29;20443;-79
2021/07/08 01:33:45;;;;;;;1.47;1.10;;;17.10;99.90;;;;;;4939932;29;20517;-79
2021/07/08 01:36:11;;;;;;;0.70;0.50;;;17.20;99.90;;;;;;4938606;29;20426;-79
2021/07/08 01:38:37;;;;;;;0.80;0.60;;;17.20;99.90;;;;;;4936920;29;20438;-78
2021/07/08 01:41:03;;;;;;;0.70;0.50;;;17.20;99.90;;;;;;4939390;29;20652;-79
2021/07/08 01:43:38;;;;;;;0.70;0.60;;;17.20;99.90;;;;;;4953914;28;20202;-79
2021/07/08 01:46:06;;;;;;;0.87;0.70;;;17.10;99.90;;;;;;4934141;29;20453;-80
2021/07/08 01:48:33;;;;;;;0.73;0.63;;;17.00;99.90;;;;;;4939447;29;20423;-79
2021/07/08 01:51:04;;;;;;;0.70;0.50;;;17.10;99.90;;;;;;4938935;29;20494;-78
2021/07/08 01:53:30;;;;;;;0.70;0.50;;;17.10;99.90;;;;;;4939529;29;20455;-79
2021/07/08 01:55:57;;;;;;;1.93;1.43;;;17.10;99.90;;;;;;4938863;29;20450;-79
2021/07/08 01:58:25;;;;;;;0.87;0.60;;;17.10;99.90;;;;;;4938862;29;20197;-79
2021/07/08 02:00:52;;;;;;;0.80;0.70;;;17.10;99.90;;;;;;4935953;29;20807;-78
2021/07/08 02:03:18;;;;;;;0.80;0.63;;;17.20;99.90;;;;;;4935209;29;20426;-79
2021/07/08 02:05:45;;;;;;;0.70;0.60;;;17.10;99.90;;;;;;4934874;29;20470;-79
2021/07/08 02:08:10;;;;;;;0.90;0.70;;;17.10;99.90;;;;;;4932092;29;20432;-78
2021/07/08 02:10:36;;;;;;;1.27;1.17;;;17.00;99.90;;;;;;4919348;29;20451;-77
2021/07/08 02:13:02;;;;;;;1.20;1.10;;;17.10;99.90;;;;;;4936199;29;20190;-78
2021/07/08 02:15:27;;;;;;;0.70;0.60;;;17.00;99.90;;;;;;4950544;29;20310;-78
2021/07/08 02:17:53;;;;;;;1.00;0.80;;;17.00;99.90;;;;;;4937454;28;20660;-78
2021/07/08 02:20:19;;;;;;;1.00;0.90;;;16.90;99.90;;;;;;4937164;29;20722;-78
2021/07/08 02:22:45;;;;;;;1.33;0.90;;;16.70;99.90;;;;;;4936493;29;20246;-77
2021/07/08 02:25:12;;;;;;;0.97;0.93;;;16.80;99.90;;;;;;4939045;29;20458;-79
2021/07/08 02:27:37;;;;;;;0.73;0.60;;;16.80;99.90;;;;;;4941869;29;20497;-78
2021/07/08 02:30:10;;;;;;;0.90;0.70;;;16.80;99.90;;;;;;4945988;29;20442;-78
2021/07/08 02:32:37;;;;;;;0.70;0.50;;;16.80;99.90;;;;;;4936004;29;20171;-79
2021/07/08 02:35:04;;;;;;;2.27;2.17;;;16.70;99.90;;;;;;4937235;29;20418;-78
2021/07/08 02:37:30;;;;;;;0.70;0.60;;;16.70;99.90;;;;;;4940789;28;20493;-78
2021/07/08 02:39:55;;;;;;;0.70;0.60;;;16.70;99.90;;;;;;4935852;29;20944;-78
2021/07/08 02:42:21;;;;;;;1.87;0.90;;;16.70;99.90;;;;;;4940415;29;20178;-79
2021/07/08 02:44:47;;;;;;;1.00;0.70;;;16.60;99.90;;;;;;4953604;28;20217;-78
2021/07/08 02:47:13;;;;;;;1.27;1.17;;;16.60;99.90;;;;;;4936093;28;20186;-78
2021/07/08 02:49:38;;;;;;;0.87;0.70;;;16.70;99.90;;;;;;4938623;29;21093;-78
2021/07/08 02:52:04;;;;;;;0.80;0.60;;;16.70;99.90;;;;;;4950703;29;20541;-78
2021/07/08 02:54:30;;;;;;;0.97;0.90;;;16.70;99.90;;;;;;4939131;29;20527;-79
2021/07/08 02:56:55;;;;;;;0.80;0.60;;;16.70;99.90;;;;;;4938848;29;20422;-79
2021/07/08 02:59:21;;;;;;;0.80;0.67;;;16.80;99.90;;;;;;4946906;29;20186;-78
2021/07/08 03:01:46;;;;;;;1.60;1.50;;;16.80;99.90;;;;;;4954380;28;20170;-78
2021/07/08 03:04:12;;;;;;;0.70;0.60;;;16.80;99.90;;;;;;4937782;28;20202;-79
2021/07/08 03:06:37;;;;;;;0.77;0.57;;;16.70;99.90;;;;;;4939723;29;20544;-78
2021/07/08 03:09:04;;;;;;;0.70;0.60;;;16.70;99.90;;;;;;4939284;29;20175;-79
2021/07/08 03:11:29;;;;;;;4.10;2.60;;;16.70;99.90;;;;;;4935158;29;20680;-78
2021/07/08 03:13:55;;;;;;;1.20;0.90;;;16.60;99.90;;;;;;4939432;29;20465;-78
2021/07/08 03:16:20;;;;;;;0.70;0.50;;;16.50;99.90;;;;;;4933248;29;20566;-78
2021/07/08 03:18:46;;;;;;;0.80;0.60;;;16.40;99.90;;;;;;4931001;29;20190;-79
2021/07/08 03:21:12;;;;;;;0.80;0.70;;;16.40;99.90;;;;;;4951323;28;20209;-78
2021/07/08 03:23:37;;;;;;;1.30;1.20;;;16.40;99.90;;;;;;4951083;29;20174;-78
2021/07/08 03:26:03;;;;;;;0.80;0.67;;;16.40;99.90;;;;;;4954031;28;20213;-78
2021/07/08 03:28:29;;;;;;;0.70;0.50;;;16.40;99.90;;;;;;4950061;28;20186;-78
2021/07/08 03:30:55;;;;;;;0.80;0.70;;;16.50;99.90;;;;;;4935037;29;20902;-78
2021/07/08 03:33:21;;;;;;;0.70;0.50;;;16.50;99.90;;;;;;4934861;29;20433;-78
2021/07/08 03:35:47;;;;;;;0.87;0.80;;;16.40;99.90;;;;;;4934645;29;20443;-78
2021/07/08 03:38:12;;;;;;;0.70;0.50;;;16.30;99.90;;;;;;4933742;29;20434;-78
2021/07/08 03:40:38;;;;;;;0.77;0.70;;;16.30;99.90;;;;;;4934896;29;20269;-79
2021/07/08 03:43:04;;;;;;;0.77;0.70;;;16.40;99.90;;;;;;4935051;29;20174;-78
2021/07/08 03:45:30;;;;;;;1.10;0.90;;;16.40;99.90;;;;;;4951161;29;20202;-78
2021/07/08 03:47:56;;;;;;;1.17;1.07;;;16.40;99.90;;;;;;4952408;28;20504;-78
2021/07/08 03:50:22;;;;;;;1.20;1.10;;;16.50;99.90;;;;;;4941452;28;20906;-79
2021/07/08 03:52:48;;;;;;;0.80;0.60;;;16.50;99.90;;;;;;4953482;29;20174;-79
2021/07/08 03:55:16;;;;;;;0.70;0.60;;;16.50;99.90;;;;;;4955526;28;20775;-79
2021/07/08 03:57:55;;;;;;;0.80;0.73;;;16.60;99.90;;;;;;4954206;28;20178;-78
2021/07/08 04:00:32;;;;;;;0.70;0.60;;;16.60;99.90;;;;;;4945199;28;20493;-78
2021/07/08 04:03:12;;;;;;;0.80;0.60;;;16.70;99.90;;;;;;4960399;28;20511;-78
2021/07/08 04:05:39;;;;;;;0.70;0.50;;;16.60;99.90;;;;;;4960069;28;20449;-79
2021/07/08 04:08:06;;;;;;;0.70;0.50;;;16.70;99.90;;;;;;4943781;28;20466;-79
2021/07/08 04:10:32;;;;;;;0.70;0.50;;;16.70;99.90;;;;;;4941692;28;20542;-79
2021/07/08 04:12:58;;;;;;;0.73;0.60;;;16.70;99.90;;;;;;4941188;29;20422;-80
2021/07/08 04:15:24;;;;;;;1.07;0.97;;;16.70;99.90;;;;;;4949483;29;20422;-79
2021/07/08 04:17:50;;;;;;;1.77;1.20;;;16.80;99.90;;;;;;4955423;29;20183;-79
2021/07/08 04:20:18;;;;;;;1.30;1.00;;;16.70;99.90;;;;;;4944984;28;21037;-78
2021/07/08 04:22:45;;;;;;;0.80;0.80;;;16.80;99.90;;;;;;4940703;29;20426;-79
2021/07/08 04:25:11;;;;;;;0.80;0.70;;;16.80;99.90;;;;;;4940323;29;20986;-79
2021/07/08 04:27:37;;;;;;;0.70;0.50;;;16.80;99.90;;;;;;4953483;29;20581;-80
2021/07/08 04:30:08;;;;;;;1.20;1.10;;;16.90;99.90;;;;;;4953750;29;21094;-79
2021/07/08 04:32:35;;;;;;;1.10;0.90;;;16.90;99.90;;;;;;4940712;29;20178;-79
2021/07/08 04:35:01;;;;;;;1.57;1.10;;;17.00;99.90;;;;;;4939878;29;20426;-80
2021/07/08 04:37:27;;;;;;;0.80;0.70;;;17.10;99.90;;;;;;4939736;29;20788;-79
2021/07/08 04:39:52;;;;;;;0.70;0.50;;;17.10;99.90;;;;;;4952938;29;20321;-79
2021/07/08 04:42:19;;;;;;;0.70;0.60;;;17.10;99.90;;;;;;4958215;28;20182;-79
2021/07/08 04:44:45;;;;;;;1.67;1.57;;;17.20;99.90;;;;;;4940394;29;20556;-80
2021/07/08 04:47:12;;;;;;;0.80;0.70;;;17.30;99.90;;;;;;4951512;29;20518;-80
2021/07/08 04:49:38;;;;;;;1.37;0.77;;;17.30;99.90;;;;;;4954837;28;20426;-79
2021/07/08 04:52:05;;;;;;;1.10;0.70;;;17.30;99.90;;;;;;4959765;28;20405;-80
2021/07/08 04:54:31;;;;;;;1.57;0.97;;;17.40;99.90;;;;;;4944781;29;20488;-80
2021/07/08 04:56:56;;;;;;;1.00;0.73;;;17.40;99.90;;;;;;4955303;29;20762;-79
2021/07/08 04:59:22;;;;;;;0.93;0.90;;;17.50;99.90;;;;;;4948079;28;20800;-82
2021/07/08 05:01:48;;;;;;;2.00;1.90;;;17.50;99.90;;;;;;4952456;29;20212;-79
2021/07/08 05:04:13;;;;;;;1.00;0.80;;;17.50;99.90;;;;;;4956785;28;20614;-80
2021/07/08 05:06:39;;;;;;;1.20;1.10;;;17.60;99.90;;;;;;4952551;28;20167;-79
2021/07/08 05:09:04;;;;;;;0.80;0.60;;;17.60;99.90;;;;;;4946284;29;20179;-78
2021/07/08 05:11:30;;;;;;;0.80;0.63;;;17.60;99.90;;;;;;4962602;28;20288;-79
2021/07/08 05:13:56;;;;;;;1.70;1.60;;;17.70;99.90;;;;;;4958479;28;20189;-78
2021/07/08 05:16:21;;;;;;;2.10;2.00;;;17.70;99.90;;;;;;4943723;29;20195;-79
2021/07/08 05:18:47;;;;;;;1.10;0.90;;;17.80;99.90;;;;;;4947641;29;20542;-81
2021/07/08 05:21:13;;;;;;;0.80;0.70;;;17.80;99.90;;;;;;4960091;29;20205;-77
2021/07/08 05:23:39;;;;;;;3.63;2.40;;;17.90;99.90;;;;;;4956586;28;20174;-78
2021/07/08 05:26:05;;;;;;;0.80;0.60;;;17.90;99.90;;;;;;4940846;28;20929;-78
2021/07/08 05:28:32;;;;;;;0.93;0.90;;;17.90;99.90;;;;;;4956483;29;20781;-79
2021/07/08 05:30:57;;;;;;;0.70;0.60;;;17.90;99.90;;;;;;4939102;29;20481;-79
2021/07/08 05:33:24;;;;;;;0.90;0.70;;;17.90;99.90;;;;;;4939549;29;20422;-79
2021/07/08 05:35:50;;;;;;;0.77;0.67;;;18.00;99.90;;;;;;4939068;29;20415;-79
2021/07/08 05:38:15;;;;;;;0.77;0.63;;;18.00;99.90;;;;;;4949150;29;21064;-78
2021/07/08 05:40:41;;;;;;;0.70;0.60;;;18.00;99.90;;;;;;4949800;29;20253;-79
2021/07/08 05:43:07;;;;;;;0.77;0.57;;;18.10;99.90;;;;;;4945301;29;20197;-79
2021/07/08 05:45:33;;;;;;;1.13;0.97;;;18.10;99.90;;;;;;4959958;28;20194;-79
2021/07/08 05:47:58;;;;;;;0.70;0.60;;;18.20;99.90;;;;;;4956939;29;20175;-80
2021/07/08 05:50:24;;;;;;;0.80;0.60;;;18.20;99.90;;;;;;4953625;29;20845;-79
2021/07/08 05:52:50;;;;;;;0.70;0.50;;;18.30;99.90;;;;;;4949362;28;20233;-80
2021/07/08 05:55:16;;;;;;;0.90;0.80;;;18.40;99.90;;;;;;4939867;29;20229;-80
2021/07/08 05:57:47;;;;;;;1.20;1.03;;;18.50;99.90;;;;;;4954548;29;20191;-79
2021/07/08 06:00:18;;;;;;;0.80;0.60;;;18.60;99.90;;;;;;4941833;29;20278;-80
2021/07/08 06:02:44;;;;;;;1.33;1.00;;;18.70;99.90;;;;;;4941919;29;20433;-79
2021/07/08 06:05:10;;;;;;;0.80;0.70;;;18.80;99.90;;;;;;4940779;29;20466;-80
2021/07/08 06:07:36;;;;;;;0.70;0.57;;;18.80;99.90;;;;;;4937128;29;20511;-78
2021/07/08 06:10:05;;;;;;;0.70;0.50;;;18.90;99.90;;;;;;4928321;29;20541;-81
2021/07/08 06:12:30;;;;;;;0.90;0.80;;;19.00;99.90;;;;;;4934588;29;20707;-78
2021/07/08 06:14:56;;;;;;;1.37;0.97;;;19.00;99.90;;;;;;4931727;29;20434;-79
2021/07/08 06:17:22;;;;;;;1.30;1.17;;;19.20;99.90;;;;;;4924002;29;20193;-77
2021/07/08 06:19:47;;;;;;;0.70;0.60;;;19.10;99.90;;;;;;4930085;29;20301;-80
2021/07/08 06:22:12;;;;;;;0.80;0.60;;;19.20;99.90;;;;;;4926500;29;20181;-77
2021/07/08 06:24:38;;;;;;;0.80;0.70;;;19.30;99.90;;;;;;4928508;29;20319;-78
2021/07/08 06:27:04;;;;;;;0.70;0.60;;;19.30;99.90;;;;;;4931687;29;20676;-78
2021/07/08 06:29:29;;;;;;;0.80;0.80;;;19.30;99.90;;;;;;4928549;29;20811;-78
2021/07/08 06:31:55;;;;;;;1.00;0.80;;;19.30;99.90;;;;;;4928080;29;20222;-78
2021/07/08 06:34:21;;;;;;;0.80;0.70;;;19.40;99.90;;;;;;4928250;29;20195;-78
2021/07/08 06:36:46;;;;;;;2.00;1.63;;;19.40;99.90;;;;;;4926845;29;20209;-78
2021/07/08 06:39:12;;;;;;;0.80;0.80;;;19.40;99.90;;;;;;4927428;29;20326;-78
2021/07/08 06:41:37;;;;;;;0.70;0.60;;;19.50;99.90;;;;;;4927584;29;20676;-78
2021/07/08 06:44:03;;;;;;;1.00;0.70;;;19.50;99.90;;;;;;4928386;29;20311;-79
2021/07/08 06:46:30;;;;;;;0.93;0.80;;;19.60;99.90;;;;;;4926639;29;20269;-77
2021/07/08 06:48:57;;;;;;;1.43;1.33;;;19.70;99.90;;;;;;4929347;29;20222;-77
2021/07/08 06:51:22;;;;;;;0.87;0.87;;;19.80;99.90;;;;;;4929427;29;20482;-78
2021/07/08 06:53:50;;;;;;;1.20;1.07;;;19.80;99.90;;;;;;4927691;29;20465;-78
2021/07/08 06:56:16;;;;;;;0.87;0.70;;;19.90;99.90;;;;;;4926807;29;20238;-78
2021/07/08 06:58:42;;;;;;;1.20;0.70;;;20.10;99.90;;;;;;4926945;29;20430;-77
2021/07/08 07:01:08;;;;;;;1.40;1.30;;;20.00;99.90;;;;;;4925283;29;20442;-78
2021/07/08 07:03:35;;;;;;;1.37;1.27;;;20.10;99.90;;;;;;4926507;29;20179;-79
2021/07/08 07:06:01;;;;;;;0.70;0.60;;;20.20;99.90;;;;;;4928270;29;20529;-78
2021/07/08 07:08:27;;;;;;;0.90;0.80;;;20.20;99.90;;;;;;4927025;29;20482;-78
2021/07/08 07:10:52;;;;;;;0.77;0.60;;;20.20;99.90;;;;;;4927186;29;20478;-77
2021/07/08 07:13:18;;;;;;;1.27;1.17;;;20.20;99.90;;;;;;4927841;29;20183;-78
2021/07/08 07:15:43;;;;;;;1.00;0.70;;;20.30;99.90;;;;;;4926188;29;20190;-79
2021/07/08 07:18:09;;;;;;;0.80;0.60;;;20.50;99.90;;;;;;4929161;29;20183;-78
2021/07/08 07:20:35;;;;;;;0.93;0.83;;;20.50;99.90;;;;;;4934280;29;20206;-79
2021/07/08 07:23:00;;;;;;;1.00;0.80;;;20.60;99.90;;;;;;4933797;29;20191;-77
2021/07/08 07:25:27;;;;;;;1.23;0.80;;;20.70;99.90;;;;;;4925143;29;20531;-77
2021/07/08 07:27:55;;;;;;;1.43;1.33;;;20.90;99.90;;;;;;4928791;29;20185;-79
2021/07/08 07:30:23;;;;;;;1.17;0.90;;;21.00;99.90;;;;;;4960886;29;20863;-79
2021/07/08 07:32:49;;;;;;;0.70;0.50;;;21.20;99.90;;;;;;4945806;28;20469;-76
2021/07/08 07:35:15;;;;;;;1.17;0.80;;;21.30;99.90;;;;;;4931147;29;20439;-75
2021/07/08 07:37:41;;;;;;;0.80;0.60;;;21.50;99.90;;;;;;4932166;29;20466;-78
2021/07/08 07:40:07;;;;;;;0.80;0.63;;;21.80;99.90;;;;;;4929534;29;20238;-78
2021/07/08 07:42:34;;;;;;;1.27;1.17;;;22.00;99.90;;;;;;4931336;29;20438;-78
2021/07/08 07:45:00;;;;;;;1.03;0.80;;;22.20;99.90;;;;;;4931754;29;20535;-80
2021/07/08 07:47:28;;;;;;;1.67;1.57;;;22.50;99.90;;;;;;4934587;29;20443;-77
2021/07/08 07:49:54;;;;;;;0.80;0.60;;;22.80;99.90;;;;;;4930501;29;20458;-78
2021/07/08 07:52:19;;;;;;;0.83;0.80;;;23.10;99.90;;;;;;4926604;29;20437;-78
2021/07/08 07:54:45;;;;;;;0.93;0.83;;;23.40;99.90;;;;;;4926198;29;20541;-79
2021/07/08 07:57:11;;;;;;;0.80;0.57;;;23.60;99.90;;;;;;4926603;29;20199;-78
2021/07/08 07:59:36;;;;;;;1.73;0.87;;;23.80;99.90;;;;;;4927711;29;20456;-79
2021/07/08 08:02:03;;;;;;;0.93;0.83;;;24.00;99.90;;;;;;4930792;29;20206;-79
2021/07/08 08:04:31;;;;;;;1.00;0.80;;;24.20;99.90;;;;;;4946171;28;20242;-79
2021/07/08 08:09:41;;;;;;;1.30;0.90;;;24.30;99.90;;;;;;4932290;29;20469;-78
2021/07/08 08:12:08;;;;;;;1.10;0.70;;;24.40;99.90;;;;;;4932722;29;20446;-79
2021/07/08 08:14:34;;;;;;;0.80;0.60;;;24.50;99.90;;;;;;4931034;29;20207;-77
2021/07/08 08:16:59;;;;;;;1.10;1.00;;;24.70;99.90;;;;;;4931884;29;20440;-78
2021/07/08 08:19:25;;;;;;;1.57;1.00;;;24.70;99.90;;;;;;4933832;29;20211;-77
2021/07/08 08:21:51;;;;;;;0.90;0.80;;;24.80;99.90;;;;;;4934036;29;20286;-77
2021/07/08 08:24:16;;;;;;;0.80;0.60;;;24.80;99.90;;;;;;4932199;29;20213;-79
2021/07/08 08:26:42;;;;;;;1.00;0.80;;;24.80;99.90;;;;;;4932449;29;20213;-79
2021/07/08 08:29:08;;;;;;;2.03;1.93;;;24.90;99.90;;;;;;4933025;29;20255;-77
2021/07/08 08:31:33;;;;;;;1.43;1.00;;;25.00;99.90;;;;;;4933021;29;20286;-80
2021/07/08 08:33:59;;;;;;;0.90;0.73;;;24.90;99.90;;;;;;4929830;29;20190;-78
2021/07/08 08:36:24;;;;;;;1.27;0.73;;;25.00;99.90;;;;;;4932381;29;20187;-78
2021/07/08 08:38:50;;;;;;;2.00;1.33;;;25.10;99.90;;;;;;4933386;29;20194;-77
2021/07/08 08:41:15;;;;;;;1.27;1.17;;;25.40;99.90;;;;;;4933495;29;20283;-78
2021/07/08 08:43:41;;;;;;;2.60;0.83;;;25.60;99.90;;;;;;4934188;29;20584;-79
2021/07/08 08:46:07;;;;;;;1.10;0.83;;;25.80;99.90;;;;;;4934374;29;20211;-79
2021/07/08 08:48:34;;;;;;;1.20;1.10;;;26.10;99.90;;;;;;4945147;29;20182;-79
2021/07/08 08:51:00;;;;;;;1.93;1.67;;;26.50;99.90;;;;;;4946360;28;20266;-82
2021/07/08 08:53:25;;;;;;;1.20;1.10;;;26.50;99.90;;;;;;4939740;29;21022;-81
2021/07/08 08:55:51;;;;;;;1.37;1.10;;;26.40;99.90;;;;;;4941861;29;20195;-79
2021/07/08 08:58:20;;;;;;;1.17;0.90;;;26.30;99.90;;;;;;4940195;29;20261;-79
2021/07/08 09:00:52;;;;;;;1.00;0.80;;;26.20;99.90;;;;;;4939703;29;21344;-79
2021/07/08 09:03:27;;;;;;;0.90;0.60;;;25.80;99.90;;;;;;4938079;29;20502;-79
2021/07/08 09:06:23;;;;;;;1.17;0.80;;;25.60;99.90;;;;;;4940487;29;20465;-79
2021/07/08 09:08:50;;;;;;;1.10;1.00;;;25.40;99.90;;;;;;4928571;29;20450;-79
2021/07/08 09:11:21;;;;;;;1.13;0.97;;;25.30;99.90;;;;;;4938773;29;20454;-79
2021/07/08 09:14:02;;;;;;;0.90;0.80;;;25.20;99.90;;;;;;4938865;29;20462;-79
2021/07/08 09:16:39;;;;;;;0.90;0.73;;;25.20;99.90;;;;;;4955828;28;21023;-79
2021/07/08 09:19:21;;;;;;;1.10;0.90;;;25.40;99.90;;;;;;4939951;29;20438;-80
2021/07/08 09:21:51;;;;;;;0.80;0.60;;;25.70;99.90;;;;;;4948784;29;20430;-80
2021/07/08 09:24:25;;;;;;;0.90;0.63;;;25.90;99.90;;;;;;4940355;29;20459;-80
2021/07/08 09:26:59;;;;;;;0.80;0.60;;;26.10;99.90;;;;;;4940783;29;20603;-79
2021/07/08 09:29:33;;;;;;;0.90;0.77;;;26.50;99.90;;;;;;4944222;29;20429;-79
2021/07/08 09:32:03;;;;;;;0.80;0.70;;;26.70;99.90;;;;;;4939570;29;20466;-80
2021/07/08 09:34:30;;;;;;;1.00;0.80;;;27.00;99.90;;;;;;4942549;29;20422;-80
2021/07/08 09:37:09;;;;;;;0.80;0.60;;;27.30;99.90;;;;;;4946814;29;20457;-80
2021/07/08 09:39:37;;;;;;;1.20;0.70;;;27.50;99.90;;;;;;4943626;29;20445;-80
2021/07/08 09:42:04;;;;;;;0.80;0.60;;;27.50;99.90;;;;;;4955698;29;20434;-82
2021/07/08 09:44:30;;;;;;;0.80;0.60;;;27.50;99.90;;;;;;4955557;29;20452;-81
2021/07/08 09:46:57;;;;;;;0.93;0.80;;;27.50;99.90;;;;;;4937994;29;20437;-81
2021/07/08 09:49:24;;;;;;;0.80;0.57;;;27.40;99.90;;;;;;4937312;29;20459;-82
2021/07/08 09:51:51;;;;;;;0.90;0.80;;;27.30;99.90;;;;;;4932596;29;21048;-79
2021/07/08 09:55:02;;;;;;;1.23;0.90;;;27.10;99.90;;;;;;4944041;29;20442;-79
2021/07/08 09:57:45;;;;;;;0.90;0.70;;;26.80;99.90;;;;;;4944914;28;20434;-79
2021/07/08 10:00:22;;;;;;;1.27;1.17;;;26.50;99.90;;;;;;4949299;29;20549;-78
2021/07/08 10:02:48;;;;;;;0.80;0.60;;;26.30;99.90;;;;;;4946042;29;20437;-78
2021/07/08 10:05:14;;;;;;;0.90;0.80;;;26.00;99.90;;;;;;4946231;29;20984;-79
2021/07/08 10:07:41;;;;;;;0.97;0.63;;;25.80;99.90;;;;;;4947450;28;20448;-78
2021/07/08 10:10:07;;;;;;;0.90;0.70;;;25.60;99.90;;;;;;4946311;29;20454;-78
2021/07/08 10:12:33;;;;;;;0.93;0.83;;;25.50;99.90;;;;;;4942506;29;20520;-79
2021/07/08 10:15:05;;;;;;;0.80;0.70;;;25.30;99.90;;;;;;4950367;28;20445;-79
2021/07/08 10:17:33;;;;;;;2.13;1.83;;;25.20;99.90;;;;;;4949308;29;20207;-79
2021/07/08 10:19:59;;;;;;;1.10;0.80;;;25.00;99.90;;;;;;4946135;29;20461;-79
2021/07/08 10:22:25;;;;;;;0.80;0.80;;;25.10;99.90;;;;;;4948291;29;20447;-79
2021/07/08 10:24:51;;;;;;;4.10;0.80;;;25.10;99.90;;;;;;4944491;29;20241;-79
2021/07/08 10:27:18;;;;;;;1.27;0.90;;;25.20;99.90;;;;;;4946627;29;20533;-79
2021/07/08 10:29:45;;;;;;;0.80;0.60;;;25.30;99.90;;;;;;4947438;28;20734;-79
2021/07/08 10:32:15;;;;;;;0.90;0.80;;;25.20;99.90;;;;;;4947689;29;20981;-79
2021/07/08 10:34:49;;;;;;;1.13;0.70;;;25.30;99.90;;;;;;4943251;29;20439;-78
2021/07/08 10:37:36;;;;;;;0.87;0.70;;;25.50;99.90;;;;;;4947698;29;20513;-79
2021/07/08 10:40:04;;;;;;;0.80;0.60;;;25.70;99.90;;;;;;4945849;29;20533;-78
2021/07/08 10:42:49;;;;;;;1.10;1.00;;;26.00;99.90;;;;;;4948317;29;20438;-79
2021/07/08 10:45:33;;;;;;;0.90;0.70;;;26.20;99.90;;;;;;4945055;29;20963;-79
2021/07/08 10:48:14;;;;;;;1.07;0.87;;;26.30;99.90;;;;;;4948642;29;20993;-79
2021/07/08 10:50:50;;;;;;;0.80;0.60;;;26.50;99.90;;;;;;4946628;29;20457;-79
2021/07/08 10:53:34;;;;;;;0.80;0.60;;;26.70;99.90;;;;;;4947357;29;20460;-79
2021/07/08 10:56:09;;;;;;;0.90;0.70;;;27.00;99.90;;;;;;4948337;29;20442;-79
2021/07/08 10:58:50;;;;;;;1.10;1.00;;;27.10;99.90;;;;;;4949088;29;20442;-79
2021/07/08 11:01:21;;;;;;;1.13;1.00;;;27.40;99.90;;;;;;4946858;29;20462;-79
2021/07/08 11:03:54;;;;;;;0.90;0.67;;;27.50;99.90;;;;;;4949904;29;20414;-79
2021/07/08 11:06:29;;;;;;;1.27;1.17;;;27.70;99.90;;;;;;4946200;29;21004;-79
2021/07/08 11:08:59;;;;;;;1.20;0.90;;;27.70;99.90;;;;;;4943658;29;20446;-79
2021/07/08 11:11:25;;;;;;;0.90;0.80;;;27.90;99.90;;;;;;4964017;28;20466;-79
2021/07/08 11:13:52;;;;;;;1.10;0.97;;;27.90;99.90;;;;;;4946517;29;20446;-79
2021/07/08 11:16:45;;;;;;;1.20;1.10;;;28.00;99.90;;;;;;4944980;29;20208;-79
2021/07/08 11:19:12;;;;;;;2.00;1.20;;;28.10;99.90;;;;;;4942511;29;20414;-76
2021/07/08 11:21:58;;;;;;;1.27;0.83;;;28.10;99.90;;;;;;4946141;28;20450;-78
2021/07/08 11:24:24;;;;;;;0.90;0.80;;;28.10;99.90;;;;;;4946371;29;20994;-77
2021/07/08 11:27:06;;;;;;;1.20;1.00;;;28.00;99.90;;;;;;4945696;29;20525;-77
2021/07/08 11:29:58;;;;;;;5.77;3.97;;;28.00;99.90;;;;;;4940440;29;20489;-78
2021/07/08 11:32:41;;;;;;;0.90;0.73;;;27.90;99.90;;;;;;4946158;28;20442;-78
2021/07/08 11:35:12;;;;;;;0.80;0.60;;;27.90;99.90;;;;;;4942984;29;20442;-77
2021/07/08 11:37:43;;;;;;;1.70;1.60;;;27.90;99.90;;;;;;4944271;29;20426;-78
2021/07/08 11:40:16;;;;;;;1.00;0.90;;;28.00;99.90;;;;;;4944379;29;20461;-78
2021/07/08 11:42:45;;;;;;;0.83;0.73;;;27.80;99.90;;;;;;4947644;29;20438;-78
2021/07/08 11:45:12;;;;;;;1.10;0.77;;;27.80;99.90;;;;;;4942102;29;20469;-78
2021/07/08 11:47:49;;;;;;;0.90;0.80;;;27.70;99.90;;;;;;4945332;28;20481;-77
2021/07/08 11:50:22;;;;;;;1.20;1.00;;;27.40;99.90;;;;;;4943934;29;20486;-78
2021/07/08 11:53:05;;;;;;;1.10;0.80;;;27.20;99.90;;;;;;4941404;29;20529;-78
2021/07/08 11:55:30;;;;;;;0.80;0.70;;;27.20;99.90;;;;;;4953312;28;20662;-78
2021/07/08 11:58:03;;;;;;;0.93;0.83;;;27.20;99.90;;;;;;4955229;28;20442;-77
2021/07/08 12:00:43;;;;;;;0.90;0.77;;;27.10;99.90;;;;;;4949042;29;20254;-80
2021/07/08 12:03:21;;;;;;;0.90;0.60;;;27.00;99.90;;;;;;4956828;28;20442;-78
2021/07/08 12:05:47;;;;;;;0.90;0.70;;;27.00;99.90;;;;;;4939916;29;20477;-80
2021/07/08 12:08:22;;;;;;;1.00;0.70;;;26.90;99.90;;;;;;4937779;29;20430;-80
2021/07/08 12:10:53;;;;;;;1.17;1.07;;;27.00;99.90;;;;;;4936246;29;20473;-79
2021/07/08 12:13:18;;;;;;;1.80;0.83;;;26.80;99.90;;;;;;4939317;29;20415;-79
2021/07/08 12:15:44;;;;;;;1.10;0.90;;;26.80;99.90;;;;;;4937700;29;20450;-79
2021/07/08 12:18:09;;;;;;;1.80;1.70;;;26.80;99.90;;;;;;4942972;29;20186;-79
2021/07/08 12:20:46;;;;;;;1.00;0.90;;;26.70;99.90;;;;;;4943162;29;20203;-79
2021/07/08 12:23:12;;;;;;;3.20;1.60;;;26.50;99.90;;;;;;4943853;29;20186;-79
2021/07/08 12:25:38;;;;;;;1.60;1.13;;;26.50;99.90;;;;;;4957557;29;20560;-79
2021/07/08 12:28:04;;;;;;;1.00;0.90;;;26.40;99.90;;;;;;4953817;28;20811;-79
2021/07/08 12:30:31;;;;;;;0.90;0.70;;;26.40;99.90;;;;;;4940556;29;20195;-79
2021/07/08 12:33:04;;;;;;;0.90;0.60;;;26.40;99.90;;;;;;4940916;29;20525;-79
2021/07/08 12:35:44;;;;;;;1.40;1.10;;;26.50;99.90;;;;;;4960513;29;20438;-78
2021/07/08 12:38:12;;;;;;;0.80;0.70;;;26.40;99.90;;;;;;4954717;28;20489;-80
2021/07/08 12:40:38;;;;;;;1.33;1.23;;;26.30;99.90;;;;;;4943400;29;20461;-79
2021/07/08 12:43:09;;;;;;;1.07;0.97;;;26.20;99.90;;;;;;4930545;29;20498;-79
2021/07/08 12:45:38;;;;;;;1.00;0.80;;;26.20;99.90;;;;;;4935247;29;20529;-79
2021/07/08 12:48:05;;;;;;;0.80;0.60;;;26.20;99.90;;;;;;4934246;29;20433;-80
2021/07/08 12:50:34;;;;;;;1.27;0.90;;;26.20;99.90;;;;;;4942039;29;20482;-79
2021/07/08 12:53:03;;;;;;;1.43;1.33;;;26.20;99.90;;;;;;4944304;29;20446;-79
2021/07/08 12:55:52;;;;;;;0.97;0.70;;;26.20;99.90;;;;;;4944817;29;20505;-79